sensor_id;sensor_type;location;lat;lon;timestamp;pressure;altitude;pressure_sealevel;temperature
24201;BMP280;2801;50.972;7.856;2023-02-27T00:01:08;98424.50;;;-2.28
24201;BMP280;2801;50.972;7.856;2023-02-27T00:03:35;98422.91;;;-2.29
24201;BMP280;2801;50.972;7.856;2023-02-27T00:06:02;98422.44;;;-2.26
24201;BMP280;2801;50.972;7.856;2023-02-27T00:08:29;98429.31;;;-2.25
24201;BMP280;2801;50.972;7.856;2023-02-27T00:10:58;98426.25;;;-2.22
24201;BMP280;2801;50.972;7.856;2023-02-27T00:13:25;98429.47;;;-2.20
24201;BMP280;2801;50.972;7.856;2023-02-27T00:15:52;98428.59;;;-2.14
24201;BMP280;2801;50.972;7.856;2023-02-27T00:18:19;98431.34;;;-2.09
24201;BMP280;2801;50.972;7.856;2023-02-27T00:20:46;98422.38;;;-2.02
24201;BMP280;2801;50.972;7.856;2023-02-27T00:23:14;98432.22;;;-1.97
24201;BMP280;2801;50.972;7.856;2023-02-27T00:25:43;98420.47;;;-1.95
24201;BMP280;2801;50.972;7.856;2023-02-27T00:28:10;98427.03;;;-1.86
24201;BMP280;2801;50.972;7.856;2023-02-27T00:30:37;98421.56;;;-1.84
24201;BMP280;2801;50.972;7.856;2023-02-27T00:33:04;98426.16;;;-1.80
24201;BMP280;2801;50.972;7.856;2023-02-27T00:35:31;98424.56;;;-1.81
24201;BMP280;2801;50.972;7.856;2023-02-27T00:37:58;98430.63;;;-1.80
24201;BMP280;2801;50.972;7.856;2023-02-27T00:40:25;98435.88;;;-1.80
24201;BMP280;2801;50.972;7.856;2023-02-27T00:42:52;98426.38;;;-1.81
24201;BMP280;2801;50.972;7.856;2023-02-27T00:45:19;98425.00;;;-1.84
24201;BMP280;2801;50.972;7.856;2023-02-27T00:47:46;98439.97;;;-1.84
24201;BMP280;2801;50.972;7.856;2023-02-27T00:50:15;98430.94;;;-1.88
24201;BMP280;2801;50.972;7.856;2023-02-27T00:52:42;98437.41;;;-1.91
24201;BMP280;2801;50.972;7.856;2023-02-27T00:55:09;98428.00;;;-1.98
24201;BMP280;2801;50.972;7.856;2023-02-27T00:57:36;98431.88;;;-2.01
24201;BMP280;2801;50.972;7.856;2023-02-27T01:00:07;98433.69;;;-2.01
24201;BMP280;2801;50.972;7.856;2023-02-27T01:02:34;98432.53;;;-2.05
24201;BMP280;2801;50.972;7.856;2023-02-27T01:05:02;98430.31;;;-2.08
24201;BMP280;2801;50.972;7.856;2023-02-27T01:07:29;98434.41;;;-2.12
24201;BMP280;2801;50.972;7.856;2023-02-27T01:09:56;98421.34;;;-2.19
24201;BMP280;2801;50.972;7.856;2023-02-27T01:12:23;98425.75;;;-2.13
24201;BMP280;2801;50.972;7.856;2023-02-27T01:14:50;98436.81;;;-2.11
24201;BMP280;2801;50.972;7.856;2023-02-27T01:17:17;98431.56;;;-2.11
24201;BMP280;2801;50.972;7.856;2023-02-27T01:19:44;98419.81;;;-2.08
24201;BMP280;2801;50.972;7.856;2023-02-27T01:22:10;98413.78;;;-2.09
24201;BMP280;2801;50.972;7.856;2023-02-27T01:24:37;98420.56;;;-2.01
24201;BMP280;2801;50.972;7.856;2023-02-27T01:27:04;98425.72;;;-1.95
24201;BMP280;2801;50.972;7.856;2023-02-27T01:29:31;98418.06;;;-1.96
24201;BMP280;2801;50.972;7.856;2023-02-27T01:31:58;98418.66;;;-1.94
24201;BMP280;2801;50.972;7.856;2023-02-27T01:34:25;98416.38;;;-1.91
24201;BMP280;2801;50.972;7.856;2023-02-27T01:36:51;98410.56;;;-1.93
24201;BMP280;2801;50.972;7.856;2023-02-27T01:39:18;98416.16;;;-1.89
24201;BMP280;2801;50.972;7.856;2023-02-27T01:41:46;98401.41;;;-1.90
24201;BMP280;2801;50.972;7.856;2023-02-27T01:44:15;98411.50;;;-1.87
24201;BMP280;2801;50.972;7.856;2023-02-27T01:46:42;98405.31;;;-1.93
24201;BMP280;2801;50.972;7.856;2023-02-27T01:49:19;98410.13;;;-1.90
24201;BMP280;2801;50.972;7.856;2023-02-27T01:52:01;98410.34;;;-1.91
24201;BMP280;2801;50.972;7.856;2023-02-27T01:54:37;98406.91;;;-1.92
24201;BMP280;2801;50.972;7.856;2023-02-27T01:57:05;98411.59;;;-1.94
24201;BMP280;2801;50.972;7.856;2023-02-27T01:59:35;98404.22;;;-2.03
24201;BMP280;2801;50.972;7.856;2023-02-27T02:02:09;98413.84;;;-1.97
24201;BMP280;2801;50.972;7.856;2023-02-27T02:04:39;98413.47;;;-2.01
24201;BMP280;2801;50.972;7.856;2023-02-27T02:07:11;98411.63;;;-2.00
24201;BMP280;2801;50.972;7.856;2023-02-27T02:09:45;98411.63;;;-2.00
24201;BMP280;2801;50.972;7.856;2023-02-27T02:12:17;98416.09;;;-2.01
24201;BMP280;2801;50.972;7.856;2023-02-27T02:14:45;98409.53;;;-2.10
24201;BMP280;2801;50.972;7.856;2023-02-27T02:26:38;98418.00;;;-2.26
24201;BMP280;2801;50.972;7.856;2023-02-27T02:29:35;98425.81;;;-2.37
24201;BMP280;2801;50.972;7.856;2023-02-27T02:43:28;98419.06;;;-3.25
24201;BMP280;2801;50.972;7.856;2023-02-27T02:49:53;98431.13;;;-3.48
24201;BMP280;2801;50.972;7.856;2023-02-27T02:55:28;98431.56;;;-3.58
24201;BMP280;2801;50.972;7.856;2023-02-27T03:00:59;98440.38;;;-3.46
24201;BMP280;2801;50.972;7.856;2023-02-27T03:03:53;98437.59;;;-3.51
24201;BMP280;2801;50.972;7.856;2023-02-27T03:06:36;98439.59;;;-3.46
24201;BMP280;2801;50.972;7.856;2023-02-27T03:09:18;98432.91;;;-3.49
24201;BMP280;2801;50.972;7.856;2023-02-27T03:11:50;98439.06;;;-3.61
24201;BMP280;2801;50.972;7.856;2023-02-27T03:14:36;98436.66;;;-3.69
24201;BMP280;2801;50.972;7.856;2023-02-27T03:17:14;98443.13;;;-3.72
24201;BMP280;2801;50.972;7.856;2023-02-27T03:19:56;98446.38;;;-3.76
24201;BMP280;2801;50.972;7.856;2023-02-27T03:22:34;98450.41;;;-3.74
24201;BMP280;2801;50.972;7.856;2023-02-27T03:25:06;98438.31;;;-3.75
24201;BMP280;2801;50.972;7.856;2023-02-27T03:27:42;98442.34;;;-3.79
24201;BMP280;2801;50.972;7.856;2023-02-27T03:30:15;98439.59;;;-3.91
24201;BMP280;2801;50.972;7.856;2023-02-27T03:32:57;98430.38;;;-4.06
24201;BMP280;2801;50.972;7.856;2023-02-27T03:35:40;98433.56;;;-3.98
24201;BMP280;2801;50.972;7.856;2023-02-27T03:39:03;98434.59;;;-3.99
24201;BMP280;2801;50.972;7.856;2023-02-27T03:44:29;98446.66;;;-3.98
24201;BMP280;2801;50.972;7.856;2023-02-27T03:46:57;98437.41;;;-4.00
24201;BMP280;2801;50.972;7.856;2023-02-27T03:49:24;98442.69;;;-4.07
24201;BMP280;2801;50.972;7.856;2023-02-27T03:51:52;98444.88;;;-4.10
24201;BMP280;2801;50.972;7.856;2023-02-27T03:54:25;98442.88;;;-4.08
24201;BMP280;2801;50.972;7.856;2023-02-27T03:57:06;98448.72;;;-4.13
24201;BMP280;2801;50.972;7.856;2023-02-27T03:59:36;98448.34;;;-4.16
24201;BMP280;2801;50.972;7.856;2023-02-27T04:02:03;98454.16;;;-4.14
24201;BMP280;2801;50.972;7.856;2023-02-27T04:04:32;98454.00;;;-4.19
24201;BMP280;2801;50.972;7.856;2023-02-27T04:16:22;98483.22;;;-4.48
24201;BMP280;2801;50.972;7.856;2023-02-27T04:19:05;98484.63;;;-4.46
24201;BMP280;2801;50.972;7.856;2023-02-27T04:21:42;98489.69;;;-4.57
24201;BMP280;2801;50.972;7.856;2023-02-27T04:24:33;98480.00;;;-4.63
24201;BMP280;2801;50.972;7.856;2023-02-27T04:36:21;98495.53;;;-4.68
24201;BMP280;2801;50.972;7.856;2023-02-27T04:39:09;98500.53;;;-4.73
24201;BMP280;2801;50.972;7.856;2023-02-27T04:41:48;98494.91;;;-4.70
24201;BMP280;2801;50.972;7.856;2023-02-27T04:44:18;98490.47;;;-4.63
24201;BMP280;2801;50.972;7.856;2023-02-27T04:46:48;98488.06;;;-4.71
24201;BMP280;2801;50.972;7.856;2023-02-27T04:49:25;98494.94;;;-4.64
24201;BMP280;2801;50.972;7.856;2023-02-27T04:52:15;98494.94;;;-4.64
24201;BMP280;2801;50.972;7.856;2023-02-27T04:57:33;98490.47;;;-4.57
24201;BMP280;2801;50.972;7.856;2023-02-27T05:00:07;98492.50;;;-4.59
24201;BMP280;2801;50.972;7.856;2023-02-27T05:02:41;98491.09;;;-4.61
24201;BMP280;2801;50.972;7.856;2023-02-27T05:05:15;98497.75;;;-4.65
24201;BMP280;2801;50.972;7.856;2023-02-27T05:07:51;98500.16;;;-4.77
24201;BMP280;2801;50.972;7.856;2023-02-27T05:10:44;98498.94;;;-4.87
24201;BMP280;2801;50.972;7.856;2023-02-27T05:13:18;98499.13;;;-4.89
24201;BMP280;2801;50.972;7.856;2023-02-27T05:15:52;98505.78;;;-4.93
24201;BMP280;2801;50.972;7.856;2023-02-27T05:18:22;98512.03;;;-4.94
24201;BMP280;2801;50.972;7.856;2023-02-27T05:21:02;98503.16;;;-4.99
24201;BMP280;2801;50.972;7.856;2023-02-27T05:24:59;98512.59;;;-4.98
24201;BMP280;2801;50.972;7.856;2023-02-27T05:27:03;98516.81;;;-5.04
24201;BMP280;2801;50.972;7.856;2023-02-27T05:29:52;98511.78;;;-5.05
24201;BMP280;2801;50.972;7.856;2023-02-27T05:32:36;98509.94;;;-5.11
24201;BMP280;2801;50.972;7.856;2023-02-27T05:35:28;98520.63;;;-5.13
24201;BMP280;2801;50.972;7.856;2023-02-27T05:40:47;98502.91;;;-5.24
24201;BMP280;2801;50.972;7.856;2023-02-27T05:43:23;98519.81;;;-5.20
24201;BMP280;2801;50.972;7.856;2023-02-27T05:46:01;98528.25;;;-5.18
24201;BMP280;2801;50.972;7.856;2023-02-27T05:48:38;98526.66;;;-5.19
24201;BMP280;2801;50.972;7.856;2023-02-27T05:51:10;98525.81;;;-5.19
24201;BMP280;2801;50.972;7.856;2023-02-27T05:53:50;98517.38;;;-5.28
24201;BMP280;2801;50.972;7.856;2023-02-27T05:56:22;98522.00;;;-5.23
24201;BMP280;2801;50.972;7.856;2023-02-27T05:59:03;98518.19;;;-5.21
24201;BMP280;2801;50.972;7.856;2023-02-27T06:01:32;98523.03;;;-5.18
24201;BMP280;2801;50.972;7.856;2023-02-27T06:03:59;98516.97;;;-5.25
24201;BMP280;2801;50.972;7.856;2023-02-27T06:06:29;98522.03;;;-5.10
24201;BMP280;2801;50.972;7.856;2023-02-27T06:08:56;98526.50;;;-4.91
24201;BMP280;2801;50.972;7.856;2023-02-27T06:11:23;98524.28;;;-4.88
24201;BMP280;2801;50.972;7.856;2023-02-27T06:13:50;98529.13;;;-4.85
24201;BMP280;2801;50.972;7.856;2023-02-27T06:16:17;98533.97;;;-4.88
24201;BMP280;2801;50.972;7.856;2023-02-27T06:18:43;98527.91;;;-4.89
24201;BMP280;2801;50.972;7.856;2023-02-27T06:21:12;98530.31;;;-4.87
24201;BMP280;2801;50.972;7.856;2023-02-27T06:23:39;98542.59;;;-4.88
24201;BMP280;2801;50.972;7.856;2023-02-27T06:26:06;98536.75;;;-4.90
24201;BMP280;2801;50.972;7.856;2023-02-27T06:28:33;98547.63;;;-4.93
24201;BMP280;2801;50.972;7.856;2023-02-27T06:31:00;98547.44;;;-4.91
24201;BMP280;2801;50.972;7.856;2023-02-27T06:33:26;98544.38;;;-4.95
24201;BMP280;2801;50.972;7.856;2023-02-27T06:35:53;98541.75;;;-5.01
24201;BMP280;2801;50.972;7.856;2023-02-27T06:38:20;98548.81;;;-4.95
24201;BMP280;2801;50.972;7.856;2023-02-27T06:40:47;98548.63;;;-4.94
24201;BMP280;2801;50.972;7.856;2023-02-27T06:43:14;98547.22;;;-4.83
24201;BMP280;2801;50.972;7.856;2023-02-27T06:45:41;98536.97;;;-4.78
24201;BMP280;2801;50.972;7.856;2023-02-27T06:48:08;98556.31;;;-4.53
24201;BMP280;2801;50.972;7.856;2023-02-27T06:50:38;98550.50;;;-4.49
24201;BMP280;2801;50.972;7.856;2023-02-27T06:53:04;98548.06;;;-4.37
24201;BMP280;2801;50.972;7.856;2023-02-27T06:55:32;98538.38;;;-4.30
24201;BMP280;2801;50.972;7.856;2023-02-27T06:57:59;98544.63;;;-4.25
24201;BMP280;2801;50.972;7.856;2023-02-27T07:00:26;98547.66;;;-4.15
24201;BMP280;2801;50.972;7.856;2023-02-27T07:02:53;98552.44;;;-3.92
24201;BMP280;2801;50.972;7.856;2023-02-27T07:05:19;98555.13;;;-3.54
24201;BMP280;2801;50.972;7.856;2023-02-27T07:07:46;98554.59;;;-3.12
24201;BMP280;2801;50.972;7.856;2023-02-27T07:10:13;98563.97;;;-2.92
24201;BMP280;2801;50.972;7.856;2023-02-27T07:12:41;98554.19;;;-2.85
24201;BMP280;2801;50.972;7.856;2023-02-27T07:15:08;98552.75;;;-2.74
24201;BMP280;2801;50.972;7.856;2023-02-27T07:17:35;98562.59;;;-2.14
24201;BMP280;2801;50.972;7.856;2023-02-27T07:20:07;98571.25;;;-1.53
24201;BMP280;2801;50.972;7.856;2023-02-27T07:22:34;98569.13;;;-0.79
24201;BMP280;2801;50.972;7.856;2023-02-27T07:25:02;98563.06;;;0.31
24201;BMP280;2801;50.972;7.856;2023-02-27T07:27:29;98558.34;;;1.51
24201;BMP280;2801;50.972;7.856;2023-02-27T07:29:56;98552.91;;;2.45
24201;BMP280;2801;50.972;7.856;2023-02-27T07:32:23;98561.22;;;3.18
24201;BMP280;2801;50.972;7.856;2023-02-27T07:34:50;98556.13;;;4.02
24201;BMP280;2801;50.972;7.856;2023-02-27T07:37:17;98553.38;;;4.70
24201;BMP280;2801;50.972;7.856;2023-02-27T07:39:44;98546.69;;;5.29
24201;BMP280;2801;50.972;7.856;2023-02-27T07:42:11;98553.16;;;5.88
24201;BMP280;2801;50.972;7.856;2023-02-27T07:44:37;98550.19;;;6.39
24201;BMP280;2801;50.972;7.856;2023-02-27T07:47:06;98545.81;;;6.78
24201;BMP280;2801;50.972;7.856;2023-02-27T07:49:32;98546.69;;;7.22
24201;BMP280;2801;50.972;7.856;2023-02-27T07:51:59;98544.72;;;7.38
24201;BMP280;2801;50.972;7.856;2023-02-27T07:54:27;98545.75;;;7.47
24201;BMP280;2801;50.972;7.856;2023-02-27T07:56:53;98547.06;;;7.44
24201;BMP280;2801;50.972;7.856;2023-02-27T07:59:20;98549.78;;;7.78
24201;BMP280;2801;50.972;7.856;2023-02-27T08:01:47;98541.19;;;8.15
24201;BMP280;2801;50.972;7.856;2023-02-27T08:04:14;98540.38;;;8.48
24201;BMP280;2801;50.972;7.856;2023-02-27T08:06:41;98542.16;;;8.81
24201;BMP280;2801;50.972;7.856;2023-02-27T08:09:08;98543.09;;;9.13
24201;BMP280;2801;50.972;7.856;2023-02-27T08:11:36;98540.72;;;9.30
24201;BMP280;2801;50.972;7.856;2023-02-27T08:14:03;98539.13;;;8.87
24201;BMP280;2801;50.972;7.856;2023-02-27T08:16:30;98548.59;;;8.56
24201;BMP280;2801;50.972;7.856;2023-02-27T08:18:59;98539.34;;;7.82
24201;BMP280;2801;50.972;7.856;2023-02-27T08:21:27;98547.31;;;7.04
24201;BMP280;2801;50.972;7.856;2023-02-27T08:23:55;98557.22;;;6.89
24201;BMP280;2801;50.972;7.856;2023-02-27T08:26:22;98555.16;;;6.66
24201;BMP280;2801;50.972;7.856;2023-02-27T08:28:49;98554.63;;;6.69
24201;BMP280;2801;50.972;7.856;2023-02-27T08:31:16;98555.75;;;6.43
24201;BMP280;2801;50.972;7.856;2023-02-27T08:33:43;98564.03;;;6.16
24201;BMP280;2801;50.972;7.856;2023-02-27T08:36:10;98555.53;;;5.79
24201;BMP280;2801;50.972;7.856;2023-02-27T08:38:37;98560.63;;;5.81
24201;BMP280;2801;50.972;7.856;2023-02-27T08:41:04;98555.22;;;5.61
24201;BMP280;2801;50.972;7.856;2023-02-27T08:43:31;98564.03;;;5.71
24201;BMP280;2801;50.972;7.856;2023-02-27T08:45:58;98566.22;;;5.94
24201;BMP280;2801;50.972;7.856;2023-02-27T08:48:25;98560.53;;;6.61
24201;BMP280;2801;50.972;7.856;2023-02-27T08:50:52;98558.94;;;7.23
24201;BMP280;2801;50.972;7.856;2023-02-27T08:53:19;98553.09;;;7.99
24201;BMP280;2801;50.972;7.856;2023-02-27T08:55:50;98542.59;;;8.41
24201;BMP280;2801;50.972;7.856;2023-02-27T08:58:18;98553.34;;;8.83
24201;BMP280;2801;50.972;7.856;2023-02-27T09:00:45;98535.59;;;9.34
24201;BMP280;2801;50.972;7.856;2023-02-27T09:03:12;98532.91;;;9.52
24201;BMP280;2801;50.972;7.856;2023-02-27T09:05:40;98549.78;;;9.53
24201;BMP280;2801;50.972;7.856;2023-02-27T09:08:08;98548.44;;;9.32
24201;BMP280;2801;50.972;7.856;2023-02-27T09:10:34;98540.22;;;9.28
24201;BMP280;2801;50.972;7.856;2023-02-27T09:13:02;98537.53;;;9.47
24201;BMP280;2801;50.972;7.856;2023-02-27T09:15:29;98540.47;;;9.82
24201;BMP280;2801;50.972;7.856;2023-02-27T09:17:57;98546.59;;;9.69
24201;BMP280;2801;50.972;7.856;2023-02-27T09:20:29;98543.72;;;9.79
24201;BMP280;2801;50.972;7.856;2023-02-27T09:22:58;98546.28;;;10.21
24201;BMP280;2801;50.972;7.856;2023-02-27T09:25:26;98548.63;;;10.41
24201;BMP280;2801;50.972;7.856;2023-02-27T09:27:54;98546.13;;;10.31
24201;BMP280;2801;50.972;7.856;2023-02-27T09:30:21;98537.44;;;9.89
24201;BMP280;2801;50.972;7.856;2023-02-27T09:32:49;98540.34;;;9.92
24201;BMP280;2801;50.972;7.856;2023-02-27T09:35:17;98543.78;;;10.11
24201;BMP280;2801;50.972;7.856;2023-02-27T09:37:46;98540.22;;;9.65
24201;BMP280;2801;50.972;7.856;2023-02-27T09:40:27;98554.78;;;9.41
24201;BMP280;2801;50.972;7.856;2023-02-27T09:43:00;98550.78;;;8.96
24201;BMP280;2801;50.972;7.856;2023-02-27T09:45:30;98568.72;;;8.72
24201;BMP280;2801;50.972;7.856;2023-02-27T09:48:28;98572.69;;;8.18
24201;BMP280;2801;50.972;7.856;2023-02-27T09:50:58;98572.06;;;7.63
24201;BMP280;2801;50.972;7.856;2023-02-27T09:53:32;98576.63;;;7.53
24201;BMP280;2801;50.972;7.856;2023-02-27T09:56:17;98572.75;;;7.35
24201;BMP280;2801;50.972;7.856;2023-02-27T10:02:00;98584.06;;;7.12
24201;BMP280;2801;50.972;7.856;2023-02-27T10:04:36;98579.72;;;6.53
24201;BMP280;2801;50.972;7.856;2023-02-27T10:10:22;98583.13;;;6.68
24201;BMP280;2801;50.972;7.856;2023-02-27T10:15:39;98570.72;;;6.09
24201;BMP280;2801;50.972;7.856;2023-02-27T10:18:21;98576.59;;;6.11
24201;BMP280;2801;50.972;7.856;2023-02-27T10:21:09;98560.31;;;6.27
24201;BMP280;2801;50.972;7.856;2023-02-27T10:23:57;98571.78;;;6.23
24201;BMP280;2801;50.972;7.856;2023-02-27T10:26:33;98557.41;;;6.19
24201;BMP280;2801;50.972;7.856;2023-02-27T10:29:35;98561.91;;;6.23
24201;BMP280;2801;50.972;7.856;2023-02-27T10:32:22;98564.31;;;6.20
24201;BMP280;2801;50.972;7.856;2023-02-27T10:37:54;98577.84;;;5.73
24201;BMP280;2801;50.972;7.856;2023-02-27T10:40:22;98572.00;;;5.56
24201;BMP280;2801;50.972;7.856;2023-02-27T10:42:53;98573.31;;;5.64
24201;BMP280;2801;50.972;7.856;2023-02-27T10:45:22;98578.94;;;5.77
24201;BMP280;2801;50.972;7.856;2023-02-27T10:47:48;98557.94;;;5.91
24201;BMP280;2801;50.972;7.856;2023-02-27T10:50:32;98542.75;;;6.21
24201;BMP280;2801;50.972;7.856;2023-02-27T10:53:03;98563.19;;;6.61
24201;BMP280;2801;50.972;7.856;2023-02-27T10:55:36;98558.88;;;6.75
24201;BMP280;2801;50.972;7.856;2023-02-27T10:58:06;98551.00;;;7.08
24201;BMP280;2801;50.972;7.856;2023-02-27T11:00:45;98554.59;;;7.32
24201;BMP280;2801;50.972;7.856;2023-02-27T11:03:32;98549.81;;;7.34
24201;BMP280;2801;50.972;7.856;2023-02-27T11:06:24;98553.69;;;7.08
24201;BMP280;2801;50.972;7.856;2023-02-27T11:09:20;98554.84;;;6.82
24201;BMP280;2801;50.972;7.856;2023-02-27T11:11:49;98547.19;;;6.61
24201;BMP280;2801;50.972;7.856;2023-02-27T11:14:29;98557.38;;;6.34
24201;BMP280;2801;50.972;7.856;2023-02-27T11:17:01;98547.00;;;6.32
24201;BMP280;2801;50.972;7.856;2023-02-27T11:19:34;98546.75;;;6.19
24201;BMP280;2801;50.972;7.856;2023-02-27T11:22:06;98549.44;;;6.04
24201;BMP280;2801;50.972;7.856;2023-02-27T11:24:39;98543.31;;;5.88
24201;BMP280;2801;50.972;7.856;2023-02-27T11:27:26;98549.38;;;5.44
24201;BMP280;2801;50.972;7.856;2023-02-27T11:30:05;98540.25;;;5.10
24201;BMP280;2801;50.972;7.856;2023-02-27T11:32:46;98536.47;;;5.01
24201;BMP280;2801;50.972;7.856;2023-02-27T11:35:31;98539.72;;;5.13
24201;BMP280;2801;50.972;7.856;2023-02-27T11:38:06;98533.34;;;5.24
24201;BMP280;2801;50.972;7.856;2023-02-27T11:40:46;98529.66;;;5.35
24201;BMP280;2801;50.972;7.856;2023-02-27T11:43:27;98526.22;;;5.34
24201;BMP280;2801;50.972;7.856;2023-02-27T11:46:11;98522.75;;;5.34
24201;BMP280;2801;50.972;7.856;2023-02-27T11:49:21;98528.06;;;5.29
24201;BMP280;2801;50.972;7.856;2023-02-27T11:51:58;98523.50;;;5.14
24201;BMP280;2801;50.972;7.856;2023-02-27T11:54:37;98529.56;;;5.00
24201;BMP280;2801;50.972;7.856;2023-02-27T11:57:33;98512.56;;;4.96
24201;BMP280;2801;50.972;7.856;2023-02-27T12:05:50;98515.47;;;4.94
24201;BMP280;2801;50.972;7.856;2023-02-27T12:08:33;98509.09;;;4.95
24201;BMP280;2801;50.972;7.856;2023-02-27T12:11:24;98514.19;;;5.07
24201;BMP280;2801;50.972;7.856;2023-02-27T12:14:13;98517.91;;;5.11
24201;BMP280;2801;50.972;7.856;2023-02-27T12:16:51;98517.91;;;5.06
24201;BMP280;2801;50.972;7.856;2023-02-27T12:19:34;98515.22;;;5.01
24201;BMP280;2801;50.972;7.856;2023-02-27T12:22:21;98513.31;;;4.91
24201;BMP280;2801;50.972;7.856;2023-02-27T12:25:01;98510.34;;;4.73
24201;BMP280;2801;50.972;7.856;2023-02-27T12:27:53;98508.44;;;4.63
24201;BMP280;2801;50.972;7.856;2023-02-27T12:30:37;98508.75;;;4.72
24201;BMP280;2801;50.972;7.856;2023-02-27T12:35:52;98510.16;;;4.89
24201;BMP280;2801;50.972;7.856;2023-02-27T12:38:22;98504.78;;;4.84
24201;BMP280;2801;50.972;7.856;2023-02-27T12:46:57;98496.09;;;5.04
24201;BMP280;2801;50.972;7.856;2023-02-27T12:49:47;98490.00;;;5.13
24201;BMP280;2801;50.972;7.856;2023-02-27T12:55:32;98489.78;;;5.40
24201;BMP280;2801;50.972;7.856;2023-02-27T13:01:39;98484.47;;;5.50
24201;BMP280;2801;50.972;7.856;2023-02-27T13:07:26;98487.94;;;5.60
24201;BMP280;2801;50.972;7.856;2023-02-27T13:09:58;98484.22;;;5.76
24201;BMP280;2801;50.972;7.856;2023-02-27T13:12:43;98477.81;;;5.92
24201;BMP280;2801;50.972;7.856;2023-02-27T13:15:30;98481.56;;;6.01
24201;BMP280;2801;50.972;7.856;2023-02-27T13:29:25;98477.50;;;6.24
24201;BMP280;2801;50.972;7.856;2023-02-27T13:32:08;98469.25;;;6.25
24201;BMP280;2801;50.972;7.856;2023-02-27T13:35:22;98479.41;;;6.13
24201;BMP280;2801;50.972;7.856;2023-02-27T13:37:59;98485.53;;;6.09
24201;BMP280;2801;50.972;7.856;2023-02-27T13:40:38;98480.47;;;5.97
24201;BMP280;2801;50.972;7.856;2023-02-27T13:43:35;98479.16;;;5.75
24201;BMP280;2801;50.972;7.856;2023-02-27T13:46:29;98481.28;;;5.63
24201;BMP280;2801;50.972;7.856;2023-02-27T13:51:53;98476.47;;;6.05
24201;BMP280;2801;50.972;7.856;2023-02-27T13:54:32;98478.06;;;6.06
24201;BMP280;2801;50.972;7.856;2023-02-27T13:57:30;98475.44;;;5.96
24201;BMP280;2801;50.972;7.856;2023-02-27T14:00:22;98475.94;;;5.73
24201;BMP280;2801;50.972;7.856;2023-02-27T14:05:46;98476.47;;;5.65
24201;BMP280;2801;50.972;7.856;2023-02-27T14:08:25;98488.44;;;5.62
24201;BMP280;2801;50.972;7.856;2023-02-27T14:22:02;98485.53;;;5.84
24201;BMP280;2801;50.972;7.856;2023-02-27T14:24:59;98480.22;;;5.84
24201;BMP280;2801;50.972;7.856;2023-02-27T14:27:54;98477.53;;;5.79
24201;BMP280;2801;50.972;7.856;2023-02-27T14:30:38;98467.47;;;5.96
24201;BMP280;2801;50.972;7.856;2023-02-27T14:33:38;98474.34;;;6.02
24201;BMP280;2801;50.972;7.856;2023-02-27T14:36:21;98473.22;;;6.28
24201;BMP280;2801;50.972;7.856;2023-02-27T14:38:53;98489.72;;;6.35
24201;BMP280;2801;50.972;7.856;2023-02-27T14:41:58;98480.72;;;6.06
24201;BMP280;2801;50.972;7.856;2023-02-27T14:44:44;98478.91;;;5.91
24201;BMP280;2801;50.972;7.856;2023-02-27T14:47:32;98486.59;;;5.63
24201;BMP280;2801;50.972;7.856;2023-02-27T14:50:03;98486.59;;;5.53
24201;BMP280;2801;50.972;7.856;2023-02-27T14:52:41;98475.41;;;5.41
24201;BMP280;2801;50.972;7.856;2023-02-27T14:55:33;98489.78;;;5.30
24201;BMP280;2801;50.972;7.856;2023-02-27T14:58:16;98496.13;;;5.14
24201;BMP280;2801;50.972;7.856;2023-02-27T15:01:02;98500.06;;;4.96
24201;BMP280;2801;50.972;7.856;2023-02-27T15:03:46;98494.97;;;4.80
24201;BMP280;2801;50.972;7.856;2023-02-27T15:06:26;98495.16;;;4.63
24201;BMP280;2801;50.972;7.856;2023-02-27T15:08:56;98494.34;;;4.53
24201;BMP280;2801;50.972;7.856;2023-02-27T15:11:24;98493.25;;;4.49
24201;BMP280;2801;50.972;7.856;2023-02-27T15:14:04;98506.03;;;4.57
24201;BMP280;2801;50.972;7.856;2023-02-27T15:16:37;98503.63;;;4.55
24201;BMP280;2801;50.972;7.856;2023-02-27T15:19:24;98507.69;;;4.73
24201;BMP280;2801;50.972;7.856;2023-02-27T15:21:55;98507.50;;;4.89
24201;BMP280;2801;50.972;7.856;2023-02-27T15:24:27;98506.16;;;4.97
24201;BMP280;2801;50.972;7.856;2023-02-27T15:27:03;98514.41;;;4.95
24201;BMP280;2801;50.972;7.856;2023-02-27T15:29:47;98513.06;;;4.93
24201;BMP280;2801;50.972;7.856;2023-02-27T15:32:37;98514.66;;;4.84
24201;BMP280;2801;50.972;7.856;2023-02-27T15:35:21;98519.91;;;4.69
24201;BMP280;2801;50.972;7.856;2023-02-27T15:37:56;98524.59;;;4.52
24201;BMP280;2801;50.972;7.856;2023-02-27T15:40:28;98522.41;;;4.44
24201;BMP280;2801;50.972;7.856;2023-02-27T15:42:58;98524.81;;;4.40
24201;BMP280;2801;50.972;7.856;2023-02-27T15:45:36;98531.44;;;4.38
24201;BMP280;2801;50.972;7.856;2023-02-27T15:48:03;98526.06;;;4.33
24201;BMP280;2801;50.972;7.856;2023-02-27T15:50:36;98515.94;;;4.20
24201;BMP280;2801;50.972;7.856;2023-02-27T15:53:10;98520.19;;;4.21
24201;BMP280;2801;50.972;7.856;2023-02-27T15:55:41;98527.59;;;4.19
24201;BMP280;2801;50.972;7.856;2023-02-27T15:58:26;98525.69;;;4.09
24201;BMP280;2801;50.972;7.856;2023-02-27T16:01:33;98526.63;;;3.93
24201;BMP280;2801;50.972;7.856;2023-02-27T16:04:05;98527.94;;;3.90
24201;BMP280;2801;50.972;7.856;2023-02-27T16:06:56;98528.41;;;3.82
24201;BMP280;2801;50.972;7.856;2023-02-27T16:09:34;98531.28;;;3.76
24201;BMP280;2801;50.972;7.856;2023-02-27T16:15:21;98533.00;;;3.60
24201;BMP280;2801;50.972;7.856;2023-02-27T16:20:44;98550.31;;;3.68
24201;BMP280;2801;50.972;7.856;2023-02-27T16:23:29;98545.75;;;3.63
24201;BMP280;2801;50.972;7.856;2023-02-27T16:28:58;98560.00;;;3.57
24201;BMP280;2801;50.972;7.856;2023-02-27T16:31:28;98554.41;;;3.54
24201;BMP280;2801;50.972;7.856;2023-02-27T16:34:13;98558.88;;;3.48
24201;BMP280;2801;50.972;7.856;2023-02-27T16:36:51;98555.31;;;3.38
24201;BMP280;2801;50.972;7.856;2023-02-27T16:39:19;98558.22;;;3.36
24201;BMP280;2801;50.972;7.856;2023-02-27T16:41:45;98557.88;;;3.28
24201;BMP280;2801;50.972;7.856;2023-02-27T16:44:12;98569.03;;;3.30
24201;BMP280;2801;50.972;7.856;2023-02-27T16:46:39;98571.06;;;3.23
24201;BMP280;2801;50.972;7.856;2023-02-27T16:49:22;98572.63;;;3.19
24201;BMP280;2801;50.972;7.856;2023-02-27T16:51:50;98577.34;;;3.17
24201;BMP280;2801;50.972;7.856;2023-02-27T16:54:17;98572.00;;;3.12
24201;BMP280;2801;50.972;7.856;2023-02-27T16:56:46;98578.34;;;3.11
24201;BMP280;2801;50.972;7.856;2023-02-27T16:59:36;98581.75;;;3.06
24201;BMP280;2801;50.972;7.856;2023-02-27T17:02:10;98578.72;;;2.98
24201;BMP280;2801;50.972;7.856;2023-02-27T17:04:38;98584.75;;;2.93
24201;BMP280;2801;50.972;7.856;2023-02-27T17:07:16;98586.00;;;2.86
24201;BMP280;2801;50.972;7.856;2023-02-27T17:09:44;98590.19;;;2.82
24201;BMP280;2801;50.972;7.856;2023-02-27T17:12:11;98591.97;;;2.76
24201;BMP280;2801;50.972;7.856;2023-02-27T17:14:38;98595.09;;;2.73
24201;BMP280;2801;50.972;7.856;2023-02-27T17:17:05;98597.47;;;2.70
24201;BMP280;2801;50.972;7.856;2023-02-27T17:19:33;98599.53;;;2.68
24201;BMP280;2801;50.972;7.856;2023-02-27T17:22:00;98595.28;;;2.67